Time;durP1;ratioP1;P1;durP2;ratioP2;P2;SDS_P1;SDS_P2;PMS_P1;PMS_P2;Temp;Humidity;BMP_temperature;BMP_pressure;BME280_temperature;BME280_humidity;BME280_pressure;Samples;Min_cycle;Max_cycle;Signal;HPM_P1;HPM_P2
2022/03/05 00:02:22;;;;;;;21.77;13.30;;;;;;;-1.72;100.00;96462.44;5028592;27;102283;-61
2022/03/05 00:04:49;;;;;;;22.37;13.67;;;;;;;-1.80;100.00;96466.91;5026569;28;105924;-61
2022/03/05 00:07:16;;;;;;;24.40;14.53;;;;;;;-1.86;100.00;96463.19;5027229;28;101926;-61
2022/03/05 00:09:45;;;;;;;20.77;13.27;;;;;;;-2.01;100.00;96459.69;5028472;28;102303;-61
2022/03/05 00:12:11;;;;;;;19.83;12.50;;;;;;;-2.21;100.00;96458.50;5026483;28;103925;-61
2022/03/05 00:14:38;;;;;;;21.63;12.93;;;;;;;-2.09;100.00;96464.94;5029016;27;101755;-61
2022/03/05 00:17:06;;;;;;;19.80;12.80;;;;;;;-2.05;100.00;96466.22;5030221;28;105588;-61
2022/03/05 00:19:34;;;;;;;21.60;13.03;;;;;;;-1.99;100.00;96460.34;5031437;27;103085;-61
2022/03/05 00:22:01;;;;;;;20.57;12.97;;;;;;;-2.06;100.00;96454.19;5034043;28;101793;-61
2022/03/05 00:24:28;;;;;;;17.50;11.93;;;;;;;-2.13;100.00;96457.66;5029578;28;105024;-61
2022/03/05 00:26:56;;;;;;;20.47;13.43;;;;;;;-2.09;100.00;96451.91;5031216;28;101949;-61
2022/03/05 00:29:24;;;;;;;22.50;12.60;;;;;;;-2.09;100.00;96451.13;5030521;28;104997;-61
2022/03/05 00:31:51;;;;;;;20.13;12.07;;;;;;;-2.20;100.00;96462.72;5029315;28;106026;-61
2022/03/05 00:34:18;;;;;;;18.90;12.60;;;;;;;-2.32;100.00;96453.66;5030279;28;101942;-61
2022/03/05 00:36:45;;;;;;;19.63;11.87;;;;;;;-2.37;100.00;96455.13;5029842;28;105573;-61
2022/03/05 00:39:12;;;;;;;19.53;13.37;;;;;;;-2.29;100.00;96457.72;5029594;28;103949;-61
2022/03/05 00:41:41;;;;;;;18.77;11.97;;;;;;;-2.43;100.00;96451.44;5030217;28;101800;-61
2022/03/05 00:44:09;;;;;;;19.07;12.67;;;;;;;-2.34;100.00;96455.63;5034624;28;102934;-61
2022/03/05 00:46:35;;;;;;;19.67;12.40;;;;;;;-2.32;100.00;96458.88;5030138;28;102121;-61
2022/03/05 00:49:02;;;;;;;20.13;12.60;;;;;;;-2.24;100.00;96455.44;5030018;28;105457;-61
2022/03/05 00:51:30;;;;;;;20.40;13.10;;;;;;;-2.25;100.00;96465.00;5030931;28;102625;-61
2022/03/05 00:53:56;;;;;;;21.03;12.57;;;;;;;-2.28;100.00;96465.38;5029840;28;101965;-61
2022/03/05 00:56:24;;;;;;;19.90;12.90;;;;;;;-2.36;100.00;96462.00;5029869;28;105263;-61
2022/03/05 00:58:51;;;;;;;20.37;12.67;;;;;;;-2.31;100.00;96460.50;5030575;28;103223;-61
2022/03/05 01:01:19;;;;;;;18.43;11.57;;;;;;;-2.33;100.00;96466.84;5029816;28;101897;-61
2022/03/05 01:03:47;;;;;;;20.93;12.80;;;;;;;-2.33;100.00;96452.03;5029831;28;105459;-61
2022/03/05 01:06:14;;;;;;;22.87;13.17;;;;;;;-2.28;100.00;96454.97;5034273;27;102527;-61
2022/03/05 01:08:41;;;;;;;22.87;12.77;;;;;;;-2.33;100.00;96461.63;5031080;28;103121;-61
2022/03/05 01:11:08;;;;;;;21.20;13.37;;;;;;;-2.38;100.00;96458.72;5029129;28;105675;-61
2022/03/05 01:13:36;;;;;;;23.13;13.63;;;;;;;-2.52;100.00;96457.63;5029333;28;101777;-61
2022/03/05 01:16:03;;;;;;;22.03;13.60;;;;;;;-2.43;100.00;96466.22;5029809;28;105080;-61
2022/03/05 01:18:31;;;;;;;23.07;14.27;;;;;;;-2.57;100.00;96462.53;5029124;28;105056;-61
2022/03/05 01:20:59;;;;;;;23.27;13.97;;;;;;;-2.67;100.00;96463.72;5029642;28;101846;-61
2022/03/05 01:23:25;;;;;;;22.37;14.50;;;;;;;-2.64;100.00;96464.19;5030728;28;102454;-61
2022/03/05 01:25:52;;;;;;;22.67;13.93;;;;;;;-2.57;100.00;96459.94;5027974;27;105086;-61
2022/03/05 01:28:19;;;;;;;27.07;15.93;;;;;;;-2.54;100.00;96464.81;5034069;28;102042;-61
2022/03/05 01:30:46;;;;;;;24.47;15.20;;;;;;;-2.46;100.00;96464.78;5029944;28;102796;-61
2022/03/05 01:33:17;;;;;;;27.10;15.13;;;;;;;-2.48;100.00;96463.31;5029260;28;103364;-61
2022/03/05 01:35:46;;;;;;;24.23;14.47;;;;;;;-2.62;100.00;96462.22;5030505;28;102673;-61
2022/03/05 01:38:14;;;;;;;25.27;14.67;;;;;;;-2.70;100.00;96451.84;5030048;27;102702;-61
2022/03/05 01:40:41;;;;;;;21.53;13.93;;;;;;;-2.71;100.00;96452.84;5030526;28;101825;-61
2022/03/05 01:43:09;;;;;;;26.27;14.73;;;;;;;-2.79;100.00;96450.25;5029035;28;104878;-61
2022/03/05 01:45:37;;;;;;;21.10;14.20;;;;;;;-2.82;100.00;96449.78;5029871;27;103172;-61
2022/03/05 01:48:05;;;;;;;20.67;13.47;;;;;;;-3.38;100.00;96442.06;5033963;27;102179;-61
2022/03/05 01:50:32;;;;;;;22.67;13.90;;;;;;;-3.61;100.00;96441.09;5030145;28;103065;-61
2022/03/05 01:53:00;;;;;;;22.47;14.03;;;;;;;-3.66;100.00;96445.97;5028847;28;102029;-61
2022/03/05 01:55:27;;;;;;;22.43;13.50;;;;;;;-3.57;100.00;96443.22;5028769;28;105003;-61
2022/03/05 01:57:55;;;;;;;21.10;13.77;;;;;;;-3.44;100.00;96445.31;5028235;28;105227;-61
2022/03/05 02:00:22;;;;;;;23.53;13.93;;;;;;;-3.35;100.00;96449.53;5028932;28;102240;-61
2022/03/05 02:02:50;;;;;;;22.77;13.73;;;;;;;-3.65;100.00;96445.78;5028727;28;103649;-61
2022/03/05 02:05:17;;;;;;;20.87;13.00;;;;;;;-3.47;100.00;96443.03;5028303;28;105755;-61
2022/03/05 02:07:45;;;;;;;23.37;13.13;;;;;;;-3.62;100.00;96440.28;5028793;28;102009;-61
2022/03/05 02:10:13;;;;;;;22.93;13.63;;;;;;;-3.52;100.00;96445.31;5031671;28;105330;-61
2022/03/05 02:12:41;;;;;;;24.57;13.80;;;;;;;-3.64;100.00;96451.81;5028469;28;101834;-61
2022/03/05 02:15:10;;;;;;;21.87;13.83;;;;;;;-3.52;100.00;96446.13;5028656;28;105117;-61
2022/03/05 02:17:38;;;;;;;21.00;13.57;;;;;;;-3.53;100.00;96451.47;5027999;28;105750;-61
2022/03/05 02:20:07;;;;;;;22.10;12.57;;;;;;;-3.61;100.00;96448.91;5028453;28;102147;-61
2022/03/05 02:22:36;;;;;;;21.43;13.10;;;;;;;-3.49;100.00;96440.59;5028515;28;105854;-61
2022/03/05 02:25:04;;;;;;;22.63;13.67;;;;;;;-3.55;100.00;96446.44;5029070;27;102539;-61
2022/03/05 02:27:32;;;;;;;20.57;13.40;;;;;;;-3.46;100.00;96442.88;5028437;28;102069;-61
2022/03/05 02:29:59;;;;;;;21.83;13.77;;;;;;;-3.60;100.00;96447.91;5028356;28;103716;-61
2022/03/05 02:32:26;;;;;;;21.13;14.13;;;;;;;-3.79;100.00;96449.03;5031012;28;105249;-61
2022/03/05 02:34:53;;;;;;;18.87;12.53;;;;;;;-4.01;100.00;96443.63;5028308;28;104861;-61
2022/03/05 02:37:21;;;;;;;24.93;14.47;;;;;;;-3.99;100.00;96436.53;5027422;28;105991;-61
2022/03/05 02:39:50;;;;;;;22.27;13.17;;;;;;;-4.04;100.00;96438.78;5028306;28;101887;-61
2022/03/05 02:42:17;;;;;;;20.87;13.20;;;;;;;-3.98;100.00;96433.75;5028276;28;104876;-61
2022/03/05 02:44:45;;;;;;;21.83;13.60;;;;;;;-3.88;100.00;96434.41;5027584;28;104302;-61
2022/03/05 02:47:13;;;;;;;22.97;13.40;;;;;;;-4.09;100.00;96436.66;5028118;28;101952;-61
2022/03/05 02:49:41;;;;;;;22.27;12.93;;;;;;;-4.19;100.00;96437.78;5028122;28;103633;-61
2022/03/05 02:52:08;;;;;;;22.97;13.43;;;;;;;-3.95;100.00;96428.25;5027338;28;106009;-61
2022/03/05 02:54:35;;;;;;;24.30;14.37;;;;;;;-3.75;100.00;96424.38;5031411;28;101921;-61
2022/03/05 02:57:05;;;;;;;22.63;14.17;;;;;;;-3.70;100.00;96427.28;5027353;28;104548;-61
2022/03/05 02:59:32;;;;;;;21.60;14.07;;;;;;;-3.72;100.00;96429.22;5028054;28;101957;-61
2022/03/05 03:01:59;;;;;;;20.07;12.43;;;;;;;-3.65;100.00;96417.19;5027726;28;105120;-61
2022/03/05 03:04:27;;;;;;;21.57;12.70;;;;;;;-3.66;100.00;96422.59;5027313;28;105829;-61
2022/03/05 03:06:54;;;;;;;22.97;14.37;;;;;;;-3.77;100.00;96420.31;5027823;28;101875;-61
2022/03/05 03:09:23;;;;;;;22.97;14.17;;;;;;;-3.69;100.00;96418.53;5029289;28;102659;-61
2022/03/05 03:11:50;;;;;;;23.13;13.53;;;;;;;-3.64;100.00;96418.84;5027177;28;105190;-61
2022/03/05 03:14:18;;;;;;;21.20;13.43;;;;;;;-3.66;100.00;96412.97;5027608;28;101933;-61
2022/03/05 03:16:45;;;;;;;23.63;13.17;;;;;;;-4.09;100.00;96417.69;5030672;28;105033;-61
2022/03/05 03:19:12;;;;;;;21.13;13.67;;;;;;;-4.09;100.00;96413.28;5027596;28;101909;-61
2022/03/05 03:21:39;;;;;;;19.37;12.70;;;;;;;-4.04;100.00;96423.19;5029343;28;102529;-61
2022/03/05 03:24:07;;;;;;;22.13;13.97;;;;;;;-3.98;100.00;96418.16;5026774;28;105852;-61
2022/03/05 03:26:34;;;;;;;22.00;13.43;;;;;;;-4.25;100.00;96421.03;5027670;28;102211;-61
2022/03/05 03:29:01;;;;;;;24.37;13.50;;;;;;;-4.17;100.00;96421.06;5027674;28;105193;-61
2022/03/05 03:31:29;;;;;;;22.03;13.97;;;;;;;-4.10;100.00;96416.84;5026612;28;105824;-61
2022/03/05 03:33:57;;;;;;;22.27;13.20;;;;;;;-4.42;100.00;96414.19;5027093;28;101937;-61
2022/03/05 03:36:23;;;;;;;24.57;13.97;;;;;;;-4.37;100.00;96416.31;5027490;28;105616;-61
2022/03/05 03:38:51;;;;;;;23.93;13.70;;;;;;;-4.30;100.00;96412.94;5030442;28;105357;-61
2022/03/05 03:41:18;;;;;;;22.63;13.80;;;;;;;-4.23;100.00;96408.72;5027376;28;103882;-61
2022/03/05 03:43:45;;;;;;;22.33;13.77;;;;;;;-4.22;100.00;96412.94;5026897;28;104675;-61
2022/03/05 03:46:15;;;;;;;20.93;13.30;;;;;;;-4.40;100.00;96412.25;5027532;28;102003;-61
2022/03/05 03:48:43;;;;;;;22.63;13.77;;;;;;;-4.51;100.00;96409.94;5027353;27;103702;-61
2022/03/05 03:51:11;;;;;;;23.17;12.90;;;;;;;-4.51;100.00;96415.16;5029968;28;104172;-61
2022/03/05 03:53:37;;;;;;;20.93;13.23;;;;;;;-4.67;100.00;96415.09;5030700;28;101894;-61
2022/03/05 03:56:05;;;;;;;23.57;14.10;;;;;;;-4.45;100.00;96417.09;5030666;28;104935;-61
2022/03/05 03:58:33;;;;;;;23.30;13.23;;;;;;;-4.54;100.00;96423.22;5033868;28;105534;-61
2022/03/05 04:01:00;;;;;;;22.17;13.37;;;;;;;-4.42;100.00;96419.38;5030884;28;105123;-61
2022/03/05 04:03:27;;;;;;;22.03;13.40;;;;;;;-4.34;100.00;96422.00;5029948;28;103720;-61
2022/03/05 04:05:56;;;;;;;20.20;13.07;;;;;;;-4.44;100.00;96425.69;5030741;28;102373;-61
2022/03/05 04:11:07;;;;;;;21.97;12.10;;;;;;;-4.50;100.00;96428.91;5030073;28;105673;-61
2022/03/05 04:13:34;;;;;;;23.80;13.47;;;;;;;-4.47;100.00;96431.19;5030661;28;102014;-61
2022/03/05 04:16:01;;;;;;;20.50;12.67;;;;;;;-4.69;100.00;96422.19;5030614;28;105190;-61
2022/03/05 04:18:28;;;;;;;20.23;12.97;;;;;;;-4.77;100.00;96429.94;5029692;28;105422;-61
2022/03/05 04:20:56;;;;;;;19.07;12.33;;;;;;;-4.84;100.00;96434.16;5033986;28;101836;-61
2022/03/05 04:23:24;;;;;;;22.03;13.17;;;;;;;-4.75;100.00;96435.78;5029784;28;105207;-61
2022/03/05 04:25:50;;;;;;;20.90;13.03;;;;;;;-4.66;100.00;96442.63;5030374;28;101950;-61
2022/03/05 04:28:17;;;;;;;23.23;13.40;;;;;;;-4.63;100.00;96437.13;5030319;28;104784;-61
2022/03/05 04:30:44;;;;;;;22.17;13.83;;;;;;;-4.72;100.00;96452.81;5029170;28;104270;-61
2022/03/05 04:33:11;;;;;;;22.80;13.13;;;;;;;-4.91;100.00;96453.06;5030235;28;101871;-61
2022/03/05 04:35:39;;;;;;;20.93;13.83;;;;;;;-4.73;100.00;96448.59;5030378;28;104065;-61
2022/03/05 04:38:08;;;;;;;19.47;12.57;;;;;;;-4.64;100.00;96450.28;5029759;28;105376;-61
2022/03/05 04:40:35;;;;;;;21.43;13.00;;;;;;;-4.65;100.00;96448.66;5029920;28;101884;-61
2022/03/05 04:43:02;;;;;;;23.37;13.20;;;;;;;-4.74;100.00;96449.56;5033048;28;105497;-61
2022/03/05 04:45:29;;;;;;;22.30;13.20;;;;;;;-4.72;100.00;96451.06;5031306;28;101834;-61
2022/03/05 04:47:55;;;;;;;20.53;12.77;;;;;;;-4.62;100.00;96449.16;5030251;28;105143;-61
2022/03/05 04:50:23;;;;;;;26.80;14.97;;;;;;;-4.81;100.00;96454.56;5030935;28;102527;-62
2022/03/05 04:52:49;;;;;;;22.43;12.80;;;;;;;-4.73;100.00;96457.22;5029914;28;101765;-61
2022/03/05 04:55:18;;;;;;;21.50;13.33;;;;;;;-4.76;100.00;96457.50;5029684;28;104857;-61
2022/03/05 04:57:45;;;;;;;20.73;13.50;;;;;;;-4.64;100.00;96450.28;5029262;28;105343;-61
2022/03/05 05:00:13;;;;;;;20.70;12.63;;;;;;;-4.46;100.00;96451.81;5029826;27;101893;-61
2022/03/05 05:02:40;;;;;;;23.23;12.80;;;;;;;-4.53;100.00;96440.41;5029819;28;104854;-61
2022/03/05 05:05:08;;;;;;;25.60;14.23;;;;;;;-4.43;100.00;96448.09;5032480;28;105790;-61
2022/03/05 05:07:35;;;;;;;24.87;14.43;;;;;;;-4.38;100.00;96444.03;5029797;28;105321;-61
2022/03/05 05:10:02;;;;;;;23.90;14.43;;;;;;;-4.39;100.00;96450.22;5029181;28;104430;-61
2022/03/05 05:12:31;;;;;;;20.87;13.63;;;;;;;-4.40;100.00;96451.19;5029535;28;101876;-61
2022/03/05 05:14:58;;;;;;;21.83;13.73;;;;;;;-4.41;100.00;96446.97;5029413;28;105346;-61
2022/03/05 05:17:25;;;;;;;22.90;14.97;;;;;;;-4.69;100.00;96458.50;5029022;28;105953;-61
2022/03/05 05:19:52;;;;;;;22.87;13.20;;;;;;;-4.79;100.00;96455.25;5029660;28;101787;-61
2022/03/05 05:22:20;;;;;;;19.83;12.60;;;;;;;-4.85;100.00;96461.00;5029568;28;103618;-61
2022/03/05 05:24:46;;;;;;;21.80;13.40;;;;;;;-4.63;100.00;96457.09;5028872;28;105818;-61
2022/03/05 05:27:14;;;;;;;20.57;12.83;;;;;;;-4.70;100.00;96458.69;5032585;28;101864;-61
2022/03/05 05:29:42;;;;;;;23.47;13.73;;;;;;;-4.87;100.00;96465.56;5028995;28;105376;-61
2022/03/05 05:32:10;;;;;;;23.47;13.97;;;;;;;-4.79;100.00;96460.44;5029020;28;101946;-61
2022/03/05 05:34:37;;;;;;;22.93;12.87;;;;;;;-4.70;100.00;96462.06;5029472;28;104873;-61
2022/03/05 05:37:04;;;;;;;23.20;13.40;;;;;;;-4.65;100.00;96465.00;5028796;28;105775;-61
2022/03/05 05:39:31;;;;;;;22.27;13.20;;;;;;;-4.57;100.00;96472.03;5029162;28;101977;-61
2022/03/05 05:41:58;;;;;;;24.13;14.17;;;;;;;-4.60;100.00;96469.72;5029422;28;104308;-61
2022/03/05 05:44:26;;;;;;;24.40;13.37;;;;;;;-4.60;100.00;96470.56;5028495;28;104295;-61
2022/03/05 05:46:54;;;;;;;23.40;14.33;;;;;;;-4.58;100.00;96466.00;5029144;28;101866;-61
2022/03/05 05:49:21;;;;;;;21.83;14.30;;;;;;;-4.58;100.00;96466.00;5031851;28;105318;-61
2022/03/05 05:51:48;;;;;;;19.63;12.60;;;;;;;-4.55;100.00;96465.72;5030451;28;102005;-61
2022/03/05 05:54:15;;;;;;;23.00;13.07;;;;;;;-4.50;100.00;96458.28;5029212;28;105388;-61
2022/03/05 05:56:42;;;;;;;23.47;14.50;;;;;;;-4.68;100.00;96465.34;5028456;28;105690;-61
2022/03/05 05:59:09;;;;;;;23.07;13.50;;;;;;;-4.69;100.00;96461.09;5030303;27;102123;-61
2022/03/05 06:01:36;;;;;;;24.97;14.53;;;;;;;-4.61;100.00;96460.31;5028830;28;105093;-61
2022/03/05 06:04:05;;;;;;;21.97;14.03;;;;;;;-4.52;100.00;96460.22;5029723;28;102808;-61
2022/03/05 06:06:32;;;;;;;23.43;14.23;;;;;;;-4.53;100.00;96468.94;5028840;28;102026;-62
2022/03/05 06:08:59;;;;;;;21.63;13.87;;;;;;;-4.54;100.00;96464.75;5031649;28;105293;-61
2022/03/05 06:11:26;;;;;;;19.47;13.07;;;;;;;-4.56;100.00;96473.66;5028781;28;101957;-62
2022/03/05 06:13:53;;;;;;;22.77;13.87;;;;;;;-4.53;100.00;96476.75;5027907;28;104843;-62
2022/03/05 06:16:20;;;;;;;21.27;13.03;;;;;;;-4.46;100.00;96467.38;5027933;28;105689;-61
2022/03/05 06:18:47;;;;;;;21.97;13.67;;;;;;;-4.48;100.00;96471.91;5030059;28;101983;-61
2022/03/05 06:21:16;;;;;;;23.97;13.83;;;;;;;-4.57;100.00;96482.41;5028798;28;105824;-62
2022/03/05 06:23:43;;;;;;;22.80;13.77;;;;;;;-4.58;100.00;96480.78;5027654;28;104505;-61
2022/03/05 06:26:10;;;;;;;22.00;14.40;;;;;;;-4.33;100.00;96480.72;5028309;28;101915;-62
2022/03/05 06:28:38;;;;;;;23.17;14.33;;;;;;;-4.24;100.00;96479.78;5028370;28;104878;-62
2022/03/05 06:31:05;;;;;;;27.73;14.43;;;;;;;-4.40;100.00;96489.28;5030854;28;105357;-61
2022/03/05 06:33:32;;;;;;;26.17;14.80;;;;;;;-4.51;100.00;96495.56;5029611;28;101894;-61
2022/03/05 06:35:59;;;;;;;29.23;15.53;;;;;;;-4.18;100.00;96492.13;5027709;28;105840;-61
2022/03/05 06:38:28;;;;;;;25.70;14.47;;;;;;;-4.05;100.00;96489.09;5028379;28;101952;-62
2022/03/05 06:40:55;;;;;;;26.10;14.77;;;;;;;-4.06;100.00;96495.22;5028250;28;105062;-62
2022/03/05 06:43:23;;;;;;;24.00;14.73;;;;;;;-4.06;100.00;96495.22;5027443;28;105438;-62
2022/03/05 06:45:49;;;;;;;22.83;13.97;;;;;;;-4.03;100.00;96493.16;5028097;28;101770;-61
2022/03/05 06:48:16;;;;;;;23.70;14.63;;;;;;;-3.92;100.00;96494.63;5028164;28;106110;-62
2022/03/05 06:50:44;;;;;;;21.67;14.37;;;;;;;-3.74;100.00;96493.53;5027525;28;105427;-62
2022/03/05 06:53:11;;;;;;;25.13;14.67;;;;;;;-3.69;100.00;96496.47;5031638;28;102334;-62
2022/03/05 06:55:39;;;;;;;25.00;16.13;;;;;;;-3.48;100.00;96501.19;5027454;28;105436;-61
2022/03/05 06:58:18;;;;;;;26.53;16.07;;;;;;;-3.35;100.00;96504.13;5028150;28;102005;-62
2022/03/05 07:00:46;;;;;;;21.90;14.77;;;;;;;-3.30;100.00;96502.66;5028271;28;105392;-62
2022/03/05 07:03:13;;;;;;;23.53;15.27;;;;;;;-3.25;100.00;96504.78;5027585;28;105903;-62
2022/03/05 07:05:39;;;;;;;22.60;14.17;;;;;;;-3.09;100.00;96505.59;5028271;28;102053;-62
2022/03/05 07:08:47;;;;;;;26.43;15.30;;;;;;;-3.03;100.00;96509.31;5028039;28;105630;-62
2022/03/05 07:11:27;;;;;;;22.30;14.17;;;;;;;-2.89;100.00;96512.06;5027602;28;105593;-63
2022/03/05 07:13:54;;;;;;;23.90;14.80;;;;;;;-2.74;100.00;96507.81;5028160;28;101777;-63
2022/03/05 07:16:21;;;;;;;25.97;16.07;;;;;;;-2.67;100.00;96511.34;5032227;27;102347;-63
2022/03/05 07:19:05;;;;;;;23.60;15.90;;;;;;;-2.59;100.00;96510.53;5027990;28;101677;-63
2022/03/05 07:21:32;;;;;;;25.17;15.90;;;;;;;-2.49;100.00;96514.59;5028030;28;105338;-63
2022/03/05 07:24:00;;;;;;;27.43;17.47;;;;;;;-2.49;100.00;96513.75;5027148;27;104725;-63
2022/03/05 07:26:28;;;;;;;31.03;18.17;;;;;;;-2.36;100.00;96508.88;5031139;28;101934;-63
2022/03/05 07:29:07;;;;;;;28.40;17.83;;;;;;;-2.19;100.00;96519.03;5031408;28;106524;-63
2022/03/05 07:31:35;;;;;;;26.60;16.53;;;;;;;-2.16;100.00;96510.06;5030463;28;103788;-63
2022/03/05 07:34:02;;;;;;;26.93;15.77;;;;;;;-1.86;100.00;96510.09;5031524;28;101950;-64
2022/03/05 07:36:30;;;;;;;26.37;16.47;;;;;;;-1.43;100.00;96512.09;5031366;28;105728;-63
2022/03/05 07:38:58;;;;;;;24.07;15.40;;;;;;;-1.06;100.00;96512.16;5035745;27;102541;-63
2022/03/05 07:44:49;;;;;;;28.20;16.70;;;;;;;-0.61;100.00;96506.84;5030626;28;105106;-63
2022/03/05 07:47:16;;;;;;;25.43;15.67;;;;;;;-0.45;100.00;96511.91;5031121;28;102021;-63
2022/03/05 07:49:43;;;;;;;24.00;16.27;;;;;;;-0.38;100.00;96515.44;5032411;28;102313;-63
2022/03/05 07:52:11;;;;;;;29.43;19.07;;;;;;;-0.36;100.00;96506.41;5030599;28;105172;-68
2022/03/05 07:54:37;;;;;;;26.50;16.73;;;;;;;-0.31;100.00;96511.09;5030906;28;101894;-60
2022/03/05 07:57:04;;;;;;;26.07;16.57;;;;;;;-0.32;100.00;96508.66;5029231;28;105121;-61
2022/03/05 07:59:36;;;;;;;26.63;15.67;;;;;;;-0.23;100.00;96504.97;5031515;28;102672;-60
2022/03/05 08:02:08;;;;;;;24.80;16.40;;;;;;;-0.16;100.00;96504.88;5034865;27;102183;-60
2022/03/05 08:04:35;;;;;;;25.70;15.73;;;;;;;0.19;100.00;96508.53;5030906;28;103691;-60
2022/03/05 08:07:03;;;;;;;25.00;16.07;;;;;;;0.18;100.00;96509.53;5031031;28;101926;-60
2022/03/05 08:09:42;;;;;;;26.07;16.03;;;;;;;0.07;100.00;96504.78;5029799;28;105988;-60
2022/03/05 08:12:41;;;;;;;23.53;15.40;;;;;;;0.12;100.00;96505.81;5030520;28;107173;-60
2022/03/05 08:15:09;;;;;;;27.87;15.87;;;;;;;0.21;100.00;96504.75;5032208;28;101642;-60
2022/03/05 08:17:49;;;;;;;22.10;15.07;;;;;;;0.63;100.00;96503.97;5030204;28;104532;-60
2022/03/05 08:20:16;;;;;;;22.50;15.80;;;;;;;0.71;100.00;96502.06;5030235;28;105330;-63
2022/03/05 08:22:43;;;;;;;27.03;15.63;;;;;;;0.62;100.00;96503.16;5034106;28;101921;-63
2022/03/05 08:25:10;;;;;;;22.33;14.30;;;;;;;0.83;100.00;96508.41;5029946;28;105760;-60
2022/03/05 08:28:11;;;;;;;20.30;13.87;;;;;;;1.10;100.00;96512.88;5030485;28;102066;-61
2022/03/05 08:30:40;;;;;;;21.13;13.60;;;;;;;1.12;100.00;96510.06;5025935;28;105159;-62
2022/03/05 08:33:10;;;;;;;20.83;14.20;;;;;;;1.21;100.00;96506.34;5029951;28;105760;-63
2022/03/05 08:35:37;;;;;;;21.40;14.40;;;;;;;1.33;100.00;96512.66;5029484;27;103535;-63
2022/03/05 08:38:05;;;;;;;17.67;13.00;;;;;;;1.36;100.00;96509.66;5030365;28;105624;-62
2022/03/05 08:40:32;;;;;;;21.50;14.47;;;;;;;1.51;100.00;96505.13;5030025;28;103945;-62
2022/03/05 08:42:59;;;;;;;21.10;14.27;;;;;;;1.56;100.00;96511.44;5030422;28;101899;-62
2022/03/05 08:45:26;;;;;;;20.07;14.03;;;;;;;1.74;100.00;96510.91;5067238;27;103706;-62
2022/03/05 08:47:56;;;;;;;26.20;15.50;;;;;;;1.71;100.00;96509.50;5029775;28;103076;-62
2022/03/05 08:50:24;;;;;;;36.60;18.33;;;;;;;2.10;100.00;96506.28;5057011;27;105011;-62
2022/03/05 08:52:52;;;;;;;24.87;14.67;;;;;;;1.95;100.00;96500.34;5043093;27;106467;-62
2022/03/05 08:55:19;;;;;;;180.23;51.47;;;;;;;2.18;100.00;96509.56;5043548;27;102266;-62
2022/03/05 08:57:51;;;;;;;20.60;13.33;;;;;;;1.94;100.00;96496.13;5043651;27;105315;-62
2022/03/05 09:00:18;;;;;;;20.93;14.63;;;;;;;2.13;100.00;96500.66;5017018;28;105343;-62
2022/03/05 09:02:46;;;;;;;22.20;14.70;;;;;;;1.65;100.00;96501.63;5030112;28;102065;-62
2022/03/05 09:05:14;;;;;;;21.00;13.97;;;;;;;1.78;100.00;96501.69;5029761;28;105321;-62
2022/03/05 09:08:11;;;;;;;21.57;14.30;;;;;;;2.23;100.00;96490.59;5032743;28;105834;-62
2022/03/05 09:10:38;;;;;;;19.40;13.53;;;;;;;2.63;100.00;96498.38;5029950;28;105600;-62
2022/03/05 09:13:05;;;;;;;19.17;13.53;;;;;;;2.84;100.00;96495.59;5030622;28;102670;-62
2022/03/05 09:15:33;;;;;;;20.53;13.63;;;;;;;2.90;100.00;96494.00;5031114;28;101839;-62
2022/03/05 09:18:13;;;;;;;18.37;13.30;;;;;;;3.26;100.00;96484.72;5029596;28;105802;-62
2022/03/05 09:20:43;;;;;;;15.43;11.73;;;;;;;3.21;100.00;96487.16;5029262;28;105064;-62
2022/03/05 09:23:11;;;;;;;16.57;12.53;;;;;;;3.57;100.00;96481.47;5031062;27;101975;-62
2022/03/05 09:25:38;;;;;;;18.37;12.00;;;;;;;3.82;100.00;96485.09;5029573;28;105295;-62
2022/03/05 09:28:08;;;;;;;16.47;11.70;;;;;;;3.94;96.07;96478.16;5029066;28;105704;-62
2022/03/05 09:30:37;;;;;;;17.40;11.70;;;;;;;4.12;93.74;96475.66;5033974;28;101936;-62
2022/03/05 09:33:04;;;;;;;16.40;11.70;;;;;;;4.28;94.82;96472.56;5029144;28;105794;-62
2022/03/05 09:35:32;;;;;;;21.17;13.10;;;;;;;4.34;86.39;96474.38;5029189;28;101858;-62
2022/03/05 09:38:00;;;;;;;23.80;12.73;;;;;;;4.46;84.59;96462.97;5029491;28;104984;-62
2022/03/05 09:40:30;;;;;;;22.03;12.13;;;;;;;4.46;79.53;96462.16;5028782;28;105271;-62
2022/03/05 09:42:56;;;;;;;15.43;11.03;;;;;;;4.64;76.10;96468.31;5029581;28;101807;-62
2022/03/05 09:45:23;;;;;;;17.10;10.47;;;;;;;4.79;74.94;96468.03;5029423;28;105417;-62
2022/03/05 09:48:04;;;;;;;16.40;10.73;;;;;;;4.89;67.77;96463.94;5027838;27;106131;-62
2022/03/05 09:50:32;;;;;;;13.57;10.13;;;;;;;5.06;68.75;96462.38;5029366;28;101823;-62
2022/03/05 09:53:00;;;;;;;14.50;10.47;;;;;;;5.15;67.15;96462.94;5033669;28;102521;-62
2022/03/05 09:55:29;;;;;;;28.47;14.20;;;;;;;5.12;63.32;96468.66;5029248;28;101884;-62
2022/03/05 09:58:05;;;;;;;21.77;12.30;;;;;;;5.08;64.07;96462.19;5029126;28;105317;-62
2022/03/05 10:00:33;;;;;;;21.10;12.73;;;;;;;5.46;66.47;96455.75;5028816;28;105341;-62
2022/03/05 10:03:05;;;;;;;13.67;10.33;;;;;;;4.77;59.28;96455.09;5029109;28;101908;-61
2022/03/05 10:05:34;;;;;;;12.07;9.13;;;;;;;5.26;65.72;96454.31;5029104;28;104111;-61
2022/03/05 10:08:35;;;;;;;14.53;9.37;;;;;;;5.63;63.98;96461.28;5029450;28;105352;-61
2022/03/05 10:11:09;;;;;;;13.50;9.73;;;;;;;5.43;62.27;96458.03;5029999;28;101883;-61
2022/03/05 10:13:38;;;;;;;12.53;9.37;;;;;;;5.58;62.66;96454.03;5031605;27;102297;-62
2022/03/05 10:16:24;;;;;;;10.53;8.67;;;;;;;5.97;60.37;96464.22;5033463;27;101872;-62
2022/03/05 10:19:16;;;;;;;12.53;9.60;;;;;;;5.83;57.76;96454.03;5029964;28;105740;-61
2022/03/05 10:21:57;;;;;;;12.17;9.10;;;;;;;6.20;57.57;96455.63;5029426;28;105593;-61
2022/03/05 10:24:32;;;;;;;13.57;9.23;;;;;;;5.80;59.03;96459.72;5029998;28;101845;-61
2022/03/05 10:27:01;;;;;;;12.70;9.40;;;;;;;6.17;60.04;96458.72;5029627;28;105552;-61
2022/03/05 10:29:34;;;;;;;12.30;9.57;;;;;;;6.42;57.33;96462.06;5028653;28;105274;-61
2022/03/05 10:32:03;;;;;;;13.17;9.40;;;;;;;6.40;55.79;96449.09;5029247;28;105020;-61
2022/03/05 10:34:52;;;;;;;12.23;9.13;;;;;;;6.45;55.71;96451.06;5031096;27;102606;-61
2022/03/05 10:37:20;;;;;;;14.53;10.70;;;;;;;6.54;57.49;96450.50;5045890;27;105443;-61
2022/03/05 10:39:49;;;;;;;14.43;10.60;;;;;;;6.71;54.20;96443.56;5059836;27;102015;-61
2022/03/05 10:42:29;;;;;;;12.20;9.40;;;;;;;6.64;53.70;96449.97;5029225;28;102495;-61
2022/03/05 10:45:01;;;;;;;12.90;9.60;;;;;;;6.78;52.65;96444.31;5030798;27;101621;-61
2022/03/05 10:47:49;;;;;;;12.83;9.00;;;;;;;7.04;51.13;96437.81;5029413;28;105220;-61
2022/03/05 10:50:24;;;;;;;13.17;10.00;;;;;;;6.72;52.98;96441.75;5030168;27;102979;-61
2022/03/05 10:52:53;;;;;;;13.50;10.10;;;;;;;7.07;51.96;96429.41;5029512;28;101896;-61
2022/03/05 10:55:22;;;;;;;12.50;9.70;;;;;;;6.84;52.17;96434.66;5029550;28;102770;-61
2022/03/05 10:58:13;;;;;;;13.53;9.93;;;;;;;7.23;51.94;96436.69;5028550;28;105432;-61
2022/03/05 11:00:42;;;;;;;13.70;9.27;;;;;;;6.96;49.52;96440.78;5034344;27;102023;-61
2022/03/05 11:03:08;;;;;;;12.93;9.43;;;;;;;7.16;50.31;96434.16;5029787;28;102832;-61
2022/03/05 11:05:37;;;;;;;11.53;9.63;;;;;;;7.32;50.57;96437.97;5028777;28;101943;-61
2022/03/05 11:08:18;;;;;;;15.07;11.37;;;;;;;7.57;50.49;96441.19;5029236;28;104906;-61
2022/03/05 11:11:02;;;;;;;13.13;10.27;;;;;;;7.27;50.28;96432.56;5027666;28;105283;-61
2022/03/05 11:13:32;;;;;;;11.83;9.33;;;;;;;7.38;48.73;96437.88;5028137;28;101735;-61
2022/03/05 11:15:59;;;;;;;13.50;10.40;;;;;;;7.33;49.11;96439.56;5017530;28;102562;-61
2022/03/05 11:18:27;;;;;;;13.70;10.17;;;;;;;7.65;47.62;96427.63;5027463;28;105928;-61
2022/03/05 11:20:55;;;;;;;13.20;10.27;;;;;;;7.67;46.47;96430.84;5028097;28;102092;-61
2022/03/05 11:23:22;;;;;;;13.93;9.67;;;;;;;7.96;46.75;96421.97;5030987;28;104085;-61